Jordan Village, Connecticut
Current Conditions -  °F | °C
As of 6:56 AM on Friday 24 Oct 2014 (Local Time) from KGON Reporting Station
Overcast Overcast  
Wind Chill: 50°   Ceiling: 2800
Heat Index: 50°   Visibility: 10mi
Dew Point: 46°   Wind: 8mph
Humidity: 86%   Direction: 310°NW
Pressure: 29.72"   Gusts: NA
Location:  41.3583°N, 72.1558°W
Report Text: KGON 241056Z 31007KT 10SM SCT017 BKN028 OVC055 10/08 A2972 RMK AO2 SLP062 T01000078
Loading
Personal Weather Stations






























Interactive Weather Map
Tropical Storm Tracking
New forecast layout! Learn more

10-Day Weather Forecast

Advertisements
Track Severe Weather on mobile